Ne plus se rappeler de moi
Bonjour et Bienvenue
Pas de session ouverte
Jeudi 02/04/2015
d:\inetpub\wwwroot\acrroussillon\reservation\ACR\IMAGES\IMG1.JPGd:\inetpub\wwwroot\acrroussillon\reservation\ACR\IMAGES\IMG2.JPGd:\inetpub\wwwroot\acrroussillon\reservation\ACR/IMAGES/IMG3.jpg
00:00:00
Horaires du 02/04/2015 (Données à titre indicatif seulement).
Lever du soleil : 07h29 - Coucher du soleil : 20h15 (Heure Locale)
Jour aéronautique : 06h59 - Nuit aéronautique : 20h45 (Heure Locale)
Planning des réservations des aéronefs
Planning des réservations des aéronefs
2015/04/02 07:30
LFMP 020730Z AUTO 32013G29KT 260V360 9999 NSC 11/02 Q1026
Planning des réservations des aéronefs
2015/04/02 06:15
TAF LFMP 020500Z 0206/0306 32010KT CAVOK
TEMPO 0206/0222 32015G30KT PROB30
TEMPO 0210/0218 32020G35KT
Informations sur les aéronefs
Informations sur les aéronefs
Modifications des Types de vols
ATTENTION PLUS DE PAIEMENT EN LIGNE DEPUIS LA MAISON
AEROCLUB DU ROUSSILLON. AVENUE MAURICE BELLONTE. 66000 PERPIGNAN. Tel : 04.68.73.48.18 Fax : 09.55.16.18.97 Courriel : aeroclub-roussillon@hotmail.fr
 METAR / TAF
LIENS UTILES
envoyer un e-mail
d:\inetpub\wwwroot\acrroussillon\reservation\ACR/IMAGES/Logo.jpg
Identifiez vous pour interaction
d:\inetpub\wwwroot\acrroussillon\reservation\ACR/IMAGES/Logo.jpg
Aéro-Club du Roussillon